Safe, Missouri
Current Conditions -  °F | °C
As of 7:53 AM on Monday 20 Oct 2014 (Local Time) from KVIH Reporting Station
Few Clouds Few Clouds  
Wind Chill: 51°   Ceiling: Unl
Heat Index: 51°   Visibility: 10mi
Dew Point: 47°   Wind: 8mph
Humidity: 86%   Direction: 230°SW
Pressure: 30"   Gusts: NA
Location:  37.9936°N, 91.5964°W
Report Text: KVIH 201253Z AUTO 23007KT 10SM FEW065 11/08 A3000 RMK AO2 SLP158 T01060083
Loading
Personal Weather Stations






























Interactive Weather Map
Tropical Storm Tracking
New forecast layout! Learn more

10-Day Weather Forecast

Advertisements
Track Severe Weather on mobile